CheckWX is a tool to help pilots better visualize weather data.  It is not intended as a substitute for an official pre-flight weather briefing.

14:27:22 UTC

KMBL METAR
Manistee Co-Blacker Airport
Manistee, Michigan, USA
Current

2 hours ago

KMBL 221256Z AUTO 14006KT 10SM CLR 17/04 A3005 RMK AO2 SLP194 T01670044
Observed
Apr-22 @ 12:56 UTC
Wind
  • 140° at 6 KTS
Visibility
10 SM
Flight Rules
VFR
Cloud Levels
  • Clear skies
Temperature
17°C / 63°F
Dewpoint
C / 39°F
Humidity
42%
Altimeter
30.05" Hg
Pressure
1017.62 hPa
Previous

3 hours ago

KMBL 221156Z AUTO 11004KT 10SM CLR 13/04 A3006 RMK AO2 SLP199 T01330039 10167 20106 53006
Observed
Apr-22 @ 11:56 UTC
Wind
  • 110° at 4 KTS
Visibility
10 SM
Flight Rules
VFR
Cloud Levels
  • Clear skies
Temperature
13°C / 55°F
Dewpoint
C / 39°F
Humidity
55%
Altimeter
30.06" Hg
Pressure
1017.92 hPa
Previous

4 hours ago

KMBL 221056Z AUTO 08004KT 10SM CLR 12/03 A3006 RMK AO2 SLP196 T01170033
Observed
Apr-22 @ 10:56 UTC
Wind
  • 080° at 4 KTS
Visibility
10 SM
Flight Rules
VFR
Cloud Levels
  • Clear skies
Temperature
12°C / 54°F
Dewpoint
C / 37°F
Humidity
54%
Altimeter
30.06" Hg
Pressure
1017.92 hPa